Renville, Minnesota
Current Conditions -  °F | °C
As of 10:13 PM on Monday 22 Dec 2014 (Local Time) from KOVL Reporting Station
Light Rain Light Rain  
Wind Chill: -2°   Ceiling: 500
Heat Index:   Visibility: 4mi
Dew Point:   Wind: 7mph
Humidity: 93%   Direction: 80°E
Pressure: 29.58"   Gusts: NA
Location:  44.79°N, 95.21°W
Report Text: KOVL 230413Z AUTO 08006KT 4SM -RA OVC005 01/00 A2958 RMK AO2
Loading
Personal Weather Stations






























Interactive Weather Map New forecast layout! Learn more

10-Day Weather Forecast

Advertisements
Track Severe Weather on mobile